createdAt,value
2022-12-19T00:01:38.115Z,84.20
2022-12-19T00:04:08.631Z,84.60
2022-12-19T00:06:37.484Z,84.62
2022-12-19T00:09:05.379Z,84.69
2022-12-19T00:11:32.818Z,84.74
2022-12-19T00:14:00.177Z,84.61
2022-12-19T00:16:29.052Z,84.33
2022-12-19T00:18:57.989Z,83.93
2022-12-19T00:21:26.955Z,84.28
2022-12-19T00:23:54.236Z,83.95
2022-12-19T00:26:34.331Z,83.77
2022-12-19T00:29:03.524Z,84.03
2022-12-19T00:31:32.222Z,83.94
2022-12-19T00:33:59.742Z,84.17
2022-12-19T00:36:28.805Z,83.76
2022-12-19T00:38:57.558Z,83.75
2022-12-19T00:41:32.412Z,83.86
2022-12-19T00:44:03.659Z,83.97
2022-12-19T00:46:32.875Z,84.44
2022-12-19T00:49:00.466Z,84.57
2022-12-19T00:51:29.246Z,84.87
2022-12-19T00:53:56.899Z,84.88
2022-12-19T00:56:26.558Z,84.76
2022-12-19T00:58:54.387Z,84.72
2022-12-19T01:01:23.743Z,84.67
2022-12-19T01:04:26.496Z,84.48
2022-12-19T01:06:38.984Z,84.62
2022-12-19T01:09:06.276Z,84.70
2022-12-19T01:11:52.092Z,84.55
2022-12-19T01:14:23.015Z,84.44
2022-12-19T01:16:51.551Z,84.42
2022-12-19T01:19:20.044Z,84.69
2022-12-19T01:21:47.423Z,84.25
2022-12-19T01:24:15.825Z,84.42
2022-12-19T01:26:49.811Z,84.61
2022-12-19T01:29:18.464Z,84.89
2022-12-19T01:31:45.889Z,84.52
2022-12-19T01:34:13.790Z,84.08
2022-12-19T01:36:41.171Z,84.37
2022-12-19T01:39:08.662Z,84.41
2022-12-19T01:41:35.962Z,84.47
2022-12-19T01:44:05.070Z,84.81
2022-12-19T01:46:46.483Z,84.67
2022-12-19T01:49:36.805Z,85.16
2022-12-19T01:52:06.458Z,85.26
2022-12-19T01:54:36.468Z,85.00
2022-12-19T01:57:04.752Z,84.68
2022-12-19T01:59:39.008Z,84.59
2022-12-19T02:02:20.138Z,84.99
2022-12-19T02:04:47.859Z,85.34
2022-12-19T02:07:16.605Z,85.57
2022-12-19T02:09:45.344Z,84.98
2022-12-19T02:12:13.063Z,85.01
2022-12-19T02:14:40.953Z,85.20
2022-12-19T02:17:37.453Z,85.17
2022-12-19T02:20:30.086Z,85.11
2022-12-19T02:23:15.527Z,84.40
2022-12-19T02:25:52.001Z,85.21
2022-12-19T02:29:06.460Z,84.53
2022-12-19T02:31:36.898Z,84.29
2022-12-19T02:34:07.152Z,84.60
2022-12-19T02:37:08.915Z,84.98
2022-12-19T02:39:55.380Z,85.26
2022-12-19T02:42:36.459Z,86.66
2022-12-19T02:45:05.781Z,86.45
2022-12-19T02:47:33.280Z,86.10
2022-12-19T02:50:02.922Z,85.84
2022-12-19T02:52:30.502Z,86.51
2022-12-19T02:55:03.754Z,86.32
2022-12-19T02:57:49.395Z,86.43
2022-12-19T03:00:19.251Z,86.19
2022-12-19T03:03:00.559Z,86.24
2022-12-19T03:05:33.953Z,85.83
2022-12-19T03:08:25.461Z,86.07
2022-12-19T03:11:07.103Z,86.65
2022-12-19T03:13:39.428Z,87.06
2022-12-19T03:16:08.970Z,86.76
2022-12-19T03:18:36.408Z,87.60
2022-12-19T03:21:09.084Z,86.92
2022-12-19T03:23:36.401Z,87.02
2022-12-19T03:26:06.787Z,86.77
2022-12-19T03:28:42.135Z,86.47
2022-12-19T03:31:10.037Z,86.89
2022-12-19T03:33:37.423Z,87.50
2022-12-19T03:36:06.348Z,87.41
2022-12-19T03:38:34.790Z,87.32
2022-12-19T03:41:02.726Z,87.38
2022-12-19T03:43:29.956Z,87.42
2022-12-19T03:45:58.247Z,87.08
2022-12-19T03:48:39.515Z,87.08
2022-12-19T03:51:28.036Z,86.98
2022-12-19T03:54:01.353Z,87.30
2022-12-19T03:56:42.469Z,87.39
2022-12-19T03:59:28.110Z,87.67
2022-12-19T04:01:55.827Z,87.60
2022-12-19T04:04:25.346Z,87.23
2022-12-19T04:06:52.681Z,87.44
2022-12-19T04:09:22.693Z,87.38
2022-12-19T04:11:53.310Z,87.94
2022-12-19T04:14:30.595Z,87.86
2022-12-19T04:17:23.069Z,87.51
2022-12-19T04:20:09.278Z,88.22
2022-12-19T04:22:59.572Z,88.78
2022-12-19T04:25:35.713Z,89.48
2022-12-19T04:28:36.978Z,90.11
2022-12-19T04:31:05.003Z,90.66
2022-12-19T04:33:32.302Z,90.80
2022-12-19T04:36:00.155Z,91.07
2022-12-19T04:38:27.449Z,90.96
2022-12-19T04:40:54.769Z,91.29
2022-12-19T04:43:22.054Z,91.32
2022-12-19T04:45:54.009Z,91.14
2022-12-19T04:48:24.686Z,90.94
2022-12-19T04:50:51.922Z,91.25
2022-12-19T04:53:19.190Z,91.43
2022-12-19T04:55:46.521Z,91.99
2022-12-19T04:58:18.962Z,91.87
2022-12-19T05:00:48.894Z,91.71
2022-12-19T05:03:16.180Z,91.80
2022-12-19T05:05:43.658Z,91.79
2022-12-19T05:08:11.761Z,91.36
2022-12-19T05:10:39.423Z,91.06
2022-12-19T05:13:07.374Z,91.13
2022-12-19T05:15:34.892Z,91.28
2022-12-19T05:18:02.185Z,91.12
2022-12-19T05:20:29.535Z,90.78
2022-12-19T05:22:56.792Z,90.81
2022-12-19T05:25:24.185Z,91.07
2022-12-19T05:27:51.457Z,91.18
2022-12-19T05:30:18.747Z,90.96
2022-12-19T05:32:46.089Z,90.59
2022-12-19T05:35:13.537Z,90.65
2022-12-19T05:37:40.771Z,91.01
2022-12-19T05:40:08.641Z,91.40
2022-12-19T05:42:35.858Z,91.21
2022-12-19T05:45:03.216Z,91.08
2022-12-19T05:47:30.463Z,91.12
2022-12-19T05:49:57.868Z,91.31
2022-12-19T05:52:25.205Z,91.20
2022-12-19T05:54:52.731Z,91.26
2022-12-19T05:57:20.006Z,90.85
2022-12-19T05:59:47.320Z,91.02
2022-12-19T06:02:14.793Z,91.24
2022-12-19T06:04:42.221Z,91.38
2022-12-19T06:07:09.501Z,91.34
2022-12-19T06:09:37.337Z,91.35
2022-12-19T06:12:04.939Z,91.59
2022-12-19T06:14:32.344Z,91.72
2022-12-19T06:16:59.771Z,91.96
2022-12-19T06:19:27.336Z,91.83
2022-12-19T06:21:54.658Z,91.88
2022-12-19T06:24:24.915Z,92.12
2022-12-19T06:26:52.431Z,92.21
2022-12-19T06:29:19.798Z,92.19
2022-12-19T06:31:47.253Z,92.28
2022-12-19T06:34:32.945Z,92.01
2022-12-19T06:37:07.806Z,92.22
2022-12-19T06:39:35.968Z,91.86
2022-12-19T06:42:22.464Z,91.77
2022-12-19T06:44:54.351Z,91.89
2022-12-19T06:47:23.561Z,91.88
2022-12-19T06:49:53.781Z,91.89
2022-12-19T06:52:21.715Z,91.82
2022-12-19T06:54:49.057Z,92.01
2022-12-19T06:57:16.472Z,92.13
2022-12-19T06:59:50.772Z,92.11
2022-12-19T07:02:46.872Z,91.83
2022-12-19T07:05:20.433Z,91.67
2022-12-19T07:07:50.503Z,91.62
2022-12-19T07:10:20.615Z,91.50
2022-12-19T07:12:48.621Z,91.29
2022-12-19T07:15:22.395Z,91.23
2022-12-19T07:17:51.466Z,91.68
2022-12-19T07:20:22.660Z,91.69
2022-12-19T07:22:54.518Z,91.57
2022-12-19T07:25:35.246Z,91.56
2022-12-19T07:28:03.749Z,91.67
2022-12-19T07:30:31.458Z,91.94
2022-12-19T07:32:59.065Z,92.03
2022-12-19T07:35:30.082Z,91.58
2022-12-19T07:38:04.894Z,91.46
2022-12-19T07:40:36.364Z,91.07
2022-12-19T07:43:09.652Z,91.23
2022-12-19T07:45:38.804Z,91.68
2022-12-19T07:48:06.627Z,91.60
2022-12-19T07:50:34.405Z,91.71
2022-12-19T07:53:02.733Z,91.61
2022-12-19T07:55:30.933Z,91.48
2022-12-19T07:57:59.025Z,91.09
2022-12-19T08:00:30.640Z,91.05
2022-12-19T08:02:59.682Z,91.11
2022-12-19T08:05:28.309Z,90.75
2022-12-19T08:07:56.365Z,90.58
2022-12-19T08:10:24.587Z,90.13
2022-12-19T08:12:52.711Z,90.42
2022-12-19T08:15:20.583Z,90.36
2022-12-19T08:17:48.193Z,90.35
2022-12-19T08:20:15.710Z,90.06
2022-12-19T08:22:43.245Z,89.90
2022-12-19T08:25:12.442Z,89.75
2022-12-19T08:27:43.157Z,89.88
2022-12-19T08:30:13.490Z,90.04
2022-12-19T08:32:41.270Z,90.31
2022-12-19T08:35:09.340Z,90.14
2022-12-19T08:37:37.746Z,90.07
2022-12-19T08:40:09.669Z,90.20
2022-12-19T08:42:37.439Z,90.28
2022-12-19T08:45:05.886Z,90.41
2022-12-19T08:47:36.814Z,90.03
2022-12-19T08:50:05.403Z,89.62
2022-12-19T08:52:33.582Z,89.61
2022-12-19T08:55:01.728Z,89.60
2022-12-19T08:57:29.580Z,89.76
2022-12-19T08:59:57.245Z,89.85
2022-12-19T09:02:27.092Z,89.79
2022-12-19T09:06:05.373Z,89.67
2022-12-19T09:07:52.179Z,89.45
2022-12-19T09:10:20.796Z,89.07
2022-12-19T09:12:54.402Z,89.13
2022-12-19T09:15:29.504Z,89.62
2022-12-19T09:17:57.517Z,89.45
2022-12-19T09:20:25.257Z,89.09
2022-12-19T09:22:53.536Z,89.08
2022-12-19T09:25:23.235Z,89.17
2022-12-19T09:28:25.927Z,89.05
2022-12-19T09:30:38.919Z,89.45
2022-12-19T09:33:07.190Z,89.80
2022-12-19T09:35:34.663Z,89.63
2022-12-19T09:38:03.749Z,89.63
2022-12-19T09:40:49.832Z,89.66
2022-12-19T09:43:25.271Z,89.57
2022-12-19T09:46:01.360Z,89.19
2022-12-19T09:48:28.936Z,88.71
2022-12-19T09:51:17.496Z,88.74
2022-12-19T09:54:06.282Z,88.92
2022-12-19T09:56:37.762Z,89.22
2022-12-19T09:59:47.725Z,89.28
2022-12-19T10:02:37.856Z,89.29
2022-12-19T10:05:21.104Z,88.93
2022-12-19T10:08:10.488Z,89.00
2022-12-19T10:12:36.160Z,89.04
2022-12-19T10:14:30.612Z,88.63
2022-12-19T10:17:24.601Z,88.45
2022-12-19T10:20:15.301Z,88.26
2022-12-19T10:22:52.252Z,88.02
2022-12-19T10:26:08.285Z,87.62
2022-12-19T10:28:51.876Z,87.60
2022-12-19T10:31:22.990Z,87.84
2022-12-19T10:34:01.762Z,88.21
2022-12-19T10:37:04.672Z,88.43
2022-12-19T10:39:28.090Z,88.49
2022-12-19T10:41:57.595Z,88.04
2022-12-19T10:44:27.132Z,88.17
2022-12-19T10:46:54.786Z,87.58
2022-12-19T10:49:25.919Z,87.38
2022-12-19T10:51:57.263Z,87.45
2022-12-19T10:54:47.339Z,87.09
2022-12-19T10:57:30.312Z,87.39
2022-12-19T11:00:04.265Z,87.67
2022-12-19T11:03:18.845Z,87.45
2022-12-19T11:05:57.773Z,87.78
2022-12-19T11:08:35.229Z,87.38
2022-12-19T11:12:39.650Z,87.49
2022-12-19T11:19:39.694Z,87.57
2022-12-19T11:21:09.496Z,88.20
2022-12-19T11:29:32.284Z,88.32
2022-12-19T11:29:35.214Z,87.56
2022-12-19T11:30:45.321Z,87.56
2022-12-19T11:30:46.938Z,87.79
2022-12-19T11:33:57.747Z,87.74
2022-12-19T11:36:42.689Z,88.04
2022-12-19T11:39:38.601Z,88.01
2022-12-19T11:42:15.874Z,87.44
2022-12-19T11:45:00.488Z,87.00
2022-12-19T11:47:54.563Z,87.17
2022-12-19T11:50:25.935Z,87.27
2022-12-19T11:53:18.326Z,87.45
2022-12-19T11:55:58.679Z,87.72
2022-12-19T11:58:28.857Z,88.02
2022-12-19T12:01:25.824Z,87.78
2022-12-19T12:04:18.167Z,87.66
2022-12-19T12:06:53.434Z,87.62
2022-12-19T12:12:44.622Z,88.07
2022-12-19T12:20:25.257Z,87.85
2022-12-19T12:26:23.104Z,87.71
2022-12-19T12:31:05.469Z,87.43
2022-12-19T12:31:19.293Z,87.28
2022-12-19T12:31:40.798Z,87.58
2022-12-19T12:31:43.409Z,87.60
2022-12-19T12:31:50.265Z,87.53
2022-12-19T12:35:51.084Z,87.24
2022-12-19T12:39:29.719Z,86.61
2022-12-19T12:42:40.431Z,86.69
2022-12-19T12:45:42.060Z,86.54
2022-12-19T12:48:27.244Z,86.19
2022-12-19T12:50:59.404Z,85.82
2022-12-19T12:53:34.579Z,85.93
2022-12-19T12:56:02.371Z,86.13
2022-12-19T12:58:48.731Z,86.47
2022-12-19T13:01:29.727Z,85.93
2022-12-19T13:04:06.901Z,85.16
2022-12-19T13:06:38.639Z,85.57
2022-12-19T13:09:08.960Z,85.32
2022-12-19T13:11:59.632Z,85.97
2022-12-19T13:14:37.468Z,86.22
2022-12-19T13:17:08.953Z,86.28
2022-12-19T13:19:37.649Z,86.68
2022-12-19T13:22:07.755Z,86.77
2022-12-19T13:24:54.288Z,87.25
2022-12-19T13:27:21.895Z,86.88
2022-12-19T13:30:01.510Z,86.76
2022-12-19T13:32:41.340Z,86.97
2022-12-19T13:36:12.101Z,86.96
2022-12-19T13:39:55.327Z,87.20
2022-12-19T13:41:44.614Z,87.22
2022-12-19T13:44:12.429Z,87.16
2022-12-19T13:46:42.713Z,86.89
2022-12-19T13:49:10.204Z,86.74
2022-12-19T13:51:52.055Z,85.99
2022-12-19T13:54:29.529Z,86.67
2022-12-19T13:57:03.311Z,86.32
2022-12-19T13:59:38.163Z,86.73
2022-12-19T14:02:24.830Z,86.37
2022-12-19T14:04:52.424Z,86.36
2022-12-19T14:07:39.661Z,85.94
2022-12-19T14:11:33.951Z,86.09
2022-12-19T14:13:44.671Z,86.01
2022-12-19T14:16:16.601Z,85.96
2022-12-19T14:18:48.598Z,85.79
2022-12-19T14:22:07.899Z,85.78
2022-12-19T14:24:10.430Z,85.91
2022-12-19T14:28:19.924Z,85.62
2022-12-19T14:29:45.568Z,85.45
2022-12-19T14:33:39.618Z,85.51
2022-12-19T14:36:07.678Z,85.51
2022-12-19T14:39:25.535Z,85.51
2022-12-19T14:41:09.024Z,85.95
2022-12-19T14:43:56.641Z,85.94
2022-12-19T14:53:52.266Z,86.33
2022-12-19T14:54:13.812Z,86.26
2022-12-19T14:54:28.467Z,86.26
2022-12-19T14:56:16.609Z,86.56
2022-12-19T14:58:54.884Z,86.19
2022-12-19T15:01:24.995Z,86.25
2022-12-19T15:04:50.397Z,86.85
2022-12-19T15:07:09.186Z,86.59
2022-12-19T15:11:06.817Z,86.38
2022-12-19T15:14:57.584Z,86.21
2022-12-19T15:16:27.303Z,86.46
2022-12-19T15:18:59.186Z,87.02
2022-12-19T15:21:26.819Z,86.81
2022-12-19T15:23:54.156Z,86.67
2022-12-19T15:26:29.505Z,86.61
2022-12-19T15:28:57.349Z,86.80
2022-12-19T15:31:35.144Z,86.46
2022-12-19T15:34:34.367Z,86.50
2022-12-19T15:37:00.884Z,87.18
2022-12-19T15:39:30.064Z,87.22
2022-12-19T15:41:58.764Z,86.96
2022-12-19T15:44:39.981Z,86.97
2022-12-19T15:47:15.914Z,86.81
2022-12-19T15:49:43.579Z,86.90
2022-12-19T15:52:17.930Z,87.30
2022-12-19T15:54:50.187Z,87.19
2022-12-19T15:57:33.678Z,87.23
2022-12-19T16:00:12.967Z,87.17
2022-12-19T16:03:21.140Z,87.31
2022-12-19T16:05:29.548Z,87.18
2022-12-19T16:07:58.905Z,86.96
2022-12-19T16:10:26.597Z,87.10
2022-12-19T16:12:55.659Z,87.22
2022-12-19T16:15:30.365Z,87.21
2022-12-19T16:17:58.687Z,87.11
2022-12-19T16:20:31.217Z,86.96
2022-12-19T16:22:58.782Z,86.87
2022-12-19T16:25:33.822Z,86.77
2022-12-19T16:28:01.321Z,86.55
2022-12-19T16:30:33.944Z,86.99
2022-12-19T16:33:01.532Z,86.85
2022-12-19T16:36:02.287Z,86.66
2022-12-19T16:38:17.309Z,87.08
2022-12-19T16:40:44.882Z,86.96
2022-12-19T16:43:28.096Z,86.52
2022-12-19T16:46:00.620Z,86.43
2022-12-19T16:48:30.051Z,86.68
2022-12-19T16:51:00.498Z,86.40
2022-12-19T16:53:27.889Z,85.98
2022-12-19T16:55:55.801Z,86.13
2022-12-19T16:58:25.260Z,85.33
2022-12-19T17:00:53.125Z,85.61
2022-12-19T17:03:41.061Z,86.10
2022-12-19T17:06:13.013Z,86.00
2022-12-19T17:08:40.530Z,86.09
2022-12-19T17:11:16.152Z,85.51
2022-12-19T17:13:44.157Z,85.14
2022-12-19T17:16:12.154Z,85.02
2022-12-19T17:18:40.537Z,84.60
2022-12-19T17:21:09.423Z,84.68
2022-12-19T17:23:36.791Z,84.95
2022-12-19T17:26:04.105Z,85.25
2022-12-19T17:28:31.487Z,85.66
2022-12-19T17:31:00.362Z,86.01
2022-12-19T17:33:33.426Z,86.61
2022-12-19T17:36:01.898Z,86.75
2022-12-19T17:38:29.173Z,86.15
2022-12-19T17:40:56.517Z,86.37
2022-12-19T17:43:23.846Z,86.12
2022-12-19T17:45:51.276Z,85.98
2022-12-19T17:48:31.588Z,85.64
2022-12-19T17:50:59.403Z,85.60
2022-12-19T17:53:26.818Z,86.18
2022-12-19T17:55:54.208Z,85.84
2022-12-19T17:58:21.965Z,85.02
2022-12-19T18:00:49.571Z,85.38
2022-12-19T18:03:25.051Z,85.08
2022-12-19T18:05:53.980Z,85.59
2022-12-19T18:08:26.814Z,85.73
2022-12-19T18:10:56.620Z,85.93
2022-12-19T18:13:24.868Z,86.11
2022-12-19T18:15:53.111Z,86.04
2022-12-19T18:18:20.915Z,86.15
2022-12-19T18:20:48.244Z,86.59
2022-12-19T18:23:20.725Z,86.55
2022-12-19T18:25:48.233Z,86.25
2022-12-19T18:28:16.161Z,86.33
2022-12-19T18:30:44.229Z,86.32
2022-12-19T18:33:17.875Z,86.16
2022-12-19T18:35:47.624Z,86.11
2022-12-19T18:38:19.713Z,86.36
2022-12-19T18:40:47.355Z,86.21
2022-12-19T18:43:15.557Z,85.97
2022-12-19T18:45:44.648Z,86.04
2022-12-19T18:48:37.057Z,86.19
2022-12-19T18:51:04.745Z,86.00
2022-12-19T18:53:36.344Z,86.18
2022-12-19T18:56:05.292Z,86.15
2022-12-19T18:58:32.730Z,85.88
2022-12-19T19:01:00.670Z,85.80
2022-12-19T19:03:32.934Z,85.87
2022-12-19T19:06:00.430Z,85.49
2022-12-19T19:08:29.076Z,85.34
2022-12-19T19:11:06.360Z,85.43
2022-12-19T19:13:33.909Z,86.21
2022-12-19T19:16:02.737Z,86.04
2022-12-19T19:18:40.228Z,85.88
2022-12-19T19:21:08.348Z,85.97
2022-12-19T19:23:40.830Z,85.85
2022-12-19T19:26:08.266Z,85.59
2022-12-19T19:28:38.825Z,85.33
2022-12-19T19:31:07.293Z,85.33
2022-12-19T19:33:36.486Z,85.64
2022-12-19T19:36:11.623Z,85.82
2022-12-19T19:38:40.392Z,86.00
2022-12-19T19:41:07.639Z,85.89
2022-12-19T19:43:35.570Z,86.01
2022-12-19T19:46:03.184Z,85.99
2022-12-19T19:48:31.059Z,86.22
2022-12-19T19:50:58.939Z,86.34
2022-12-19T19:53:26.306Z,86.72
2022-12-19T19:56:00.896Z,86.57
2022-12-19T19:58:28.923Z,86.41
2022-12-19T20:00:56.944Z,86.51
2022-12-19T20:03:24.805Z,86.38
2022-12-19T20:06:01.764Z,86.23
2022-12-19T20:08:35.205Z,86.04
2022-12-19T20:11:06.480Z,86.46
2022-12-19T20:13:33.927Z,86.21
2022-12-19T20:16:06.582Z,86.01
2022-12-19T20:18:34.474Z,85.66
2022-12-19T20:21:02.015Z,85.41
2022-12-19T20:23:29.394Z,85.44
2022-12-19T20:26:01.615Z,85.60
2022-12-19T20:28:30.089Z,85.64
2022-12-19T20:30:57.548Z,85.58
2022-12-19T20:33:24.962Z,85.54
2022-12-19T20:35:59.125Z,85.56
2022-12-19T20:38:26.523Z,85.42
2022-12-19T20:40:56.065Z,86.04
2022-12-19T20:43:24.073Z,86.31
2022-12-19T20:45:51.416Z,87.06
2022-12-19T20:48:18.796Z,87.24
2022-12-19T20:50:46.052Z,87.52
2022-12-19T20:53:13.412Z,87.87
2022-12-19T20:55:40.717Z,87.77
2022-12-19T20:58:08.144Z,88.17
2022-12-19T21:00:35.430Z,88.15
2022-12-19T21:03:27.808Z,87.86
2022-12-19T21:05:53.914Z,87.75
2022-12-19T21:08:21.911Z,87.77
2022-12-19T21:10:49.180Z,88.08
2022-12-19T21:13:16.576Z,88.05
2022-12-19T21:15:44.929Z,87.74
2022-12-19T21:18:12.351Z,87.79
2022-12-19T21:20:39.723Z,87.44
2022-12-19T21:23:07.131Z,87.36
2022-12-19T21:25:34.423Z,87.70
2022-12-19T21:28:01.774Z,87.90
2022-12-19T21:30:29.275Z,87.89
2022-12-19T21:32:56.575Z,88.39
2022-12-19T21:35:23.883Z,88.57
2022-12-19T21:37:52.119Z,88.34
2022-12-19T21:40:19.557Z,88.44
2022-12-19T21:42:46.961Z,88.27
2022-12-19T21:45:14.355Z,88.32
2022-12-19T21:47:42.255Z,88.61
2022-12-19T21:50:10.919Z,88.68
2022-12-19T21:52:38.362Z,88.57
2022-12-19T21:55:06.500Z,88.63
2022-12-19T21:57:37.677Z,88.64
2022-12-19T22:00:06.149Z,88.42
2022-12-19T22:02:33.514Z,88.19
2022-12-19T22:05:01.001Z,88.38
2022-12-19T22:07:28.246Z,88.38
2022-12-19T22:09:55.607Z,88.33
2022-12-19T22:12:23.203Z,88.66
2022-12-19T22:14:53.062Z,88.70
2022-12-19T22:17:20.385Z,88.49
2022-12-19T22:19:47.759Z,88.85
2022-12-19T22:22:15.034Z,88.58
2022-12-19T22:24:42.310Z,88.75
2022-12-19T22:27:09.752Z,89.14
2022-12-19T22:29:37.521Z,89.25
2022-12-19T22:32:05.266Z,89.14
2022-12-19T22:34:32.852Z,89.03
2022-12-19T22:37:00.193Z,88.82
2022-12-19T22:39:27.696Z,88.85
2022-12-19T22:41:55.225Z,89.14
2022-12-19T22:44:23.514Z,89.16
2022-12-19T22:46:50.970Z,89.31
2022-12-19T22:49:18.423Z,89.11
2022-12-19T22:51:45.711Z,89.30
2022-12-19T22:54:13.143Z,89.28
2022-12-19T22:56:40.559Z,89.01
2022-12-19T22:59:08.228Z,88.94
2022-12-19T23:01:37.401Z,88.97
2022-12-19T23:04:05.600Z,88.44
2022-12-19T23:06:34.576Z,88.12
2022-12-19T23:09:02.018Z,88.43
2022-12-19T23:11:32.678Z,88.77
2022-12-19T23:14:01.134Z,88.85
2022-12-19T23:16:28.448Z,88.62
2022-12-19T23:18:55.923Z,88.58
2022-12-19T23:21:23.948Z,88.76
2022-12-19T23:23:52.335Z,88.79
2022-12-19T23:26:21.532Z,88.74
2022-12-19T23:28:54.507Z,88.68
2022-12-19T23:31:21.960Z,87.99
2022-12-19T23:33:49.301Z,87.87
2022-12-19T23:36:27.440Z,88.59
2022-12-19T23:39:04.113Z,88.91
2022-12-19T23:41:31.478Z,88.67
2022-12-19T23:43:58.878Z,88.18
2022-12-19T23:46:26.444Z,88.45
2022-12-19T23:48:53.900Z,88.51
2022-12-19T23:51:23.113Z,88.39
2022-12-19T23:53:50.503Z,88.33
2022-12-19T23:56:25.492Z,88.40
2022-12-19T23:58:52.862Z,88.53
